createdAt,value
2018-04-28T00:00:46.282Z,0
2018-04-28T00:01:45.983Z,0
2018-04-28T00:02:45.983Z,0
2018-04-28T00:03:45.730Z,0
2018-04-28T00:04:45.981Z,0
2018-04-28T00:05:46.228Z,0
2018-04-28T00:06:45.975Z,0
2018-04-28T00:07:45.763Z,0
2018-04-28T00:08:46.226Z,0
2018-04-28T00:09:45.979Z,0
2018-04-28T00:10:45.973Z,0
2018-04-28T00:11:45.967Z,0
2018-04-28T00:12:45.712Z,0
2018-04-28T00:13:45.976Z,0
2018-04-28T00:14:47.289Z,0
2018-04-28T00:15:45.714Z,0
2018-04-28T00:16:45.964Z,0
2018-04-28T00:17:46.216Z,0
2018-04-28T00:18:45.721Z,0
2018-04-28T00:19:46.207Z,0
2018-04-28T00:20:45.773Z,0
2018-04-28T00:21:45.714Z,0
2018-04-28T00:22:45.964Z,0
2018-04-28T00:23:45.980Z,0
2018-04-28T00:24:47.824Z,0
2018-04-28T00:25:46.031Z,0
2018-04-28T00:26:46.203Z,0
2018-04-28T00:27:46.226Z,0
2018-04-28T00:28:45.946Z,0
2018-04-28T00:29:45.963Z,0
2018-04-28T00:30:46.212Z,0
2018-04-28T00:31:45.947Z,0
2018-04-28T00:32:46.198Z,0
2018-04-28T00:33:46.206Z,0
2018-04-28T00:34:45.957Z,0
2018-04-28T00:35:46.191Z,0
2018-04-28T00:36:46.186Z,0
2018-04-28T00:37:46.196Z,0
2018-04-28T00:38:45.940Z,0
2018-04-28T00:39:46.201Z,0
2018-04-28T00:40:45.712Z,0
2018-04-28T00:41:45.933Z,0
2018-04-28T00:42:46.189Z,0
2018-04-28T00:43:45.945Z,0
2018-04-28T00:44:46.982Z,0
2018-04-28T00:45:45.944Z,0
2018-04-28T00:46:45.930Z,0
2018-04-28T00:47:45.930Z,0
2018-04-28T00:48:46.178Z,0
2018-04-28T00:49:45.674Z,0
2018-04-28T00:50:45.931Z,0
2018-04-28T00:51:45.691Z,0
2018-04-28T00:52:46.183Z,0
2018-04-28T00:53:45.670Z,0
2018-04-28T00:54:45.933Z,0
2018-04-28T00:55:46.184Z,0
2018-04-28T00:56:46.172Z,0
2018-04-28T00:57:46.168Z,0
2018-04-28T00:58:45.927Z,0
2018-04-28T00:59:46.186Z,0
2018-04-28T01:00:45.923Z,0
2018-04-28T01:01:46.167Z,0
2018-04-28T01:02:45.915Z,0
2018-04-28T01:03:45.908Z,0
2018-04-28T01:04:45.662Z,0
2018-04-28T01:05:45.909Z,0
2018-04-28T01:06:46.152Z,0
2018-04-28T01:07:46.164Z,0
2018-04-28T01:08:46.156Z,0
2018-04-28T01:09:46.183Z,0
2018-04-28T01:10:45.908Z,0
2018-04-28T01:11:46.165Z,0
2018-04-28T01:12:46.168Z,0
2018-04-28T01:13:45.903Z,0
2018-04-28T01:14:45.892Z,0
2018-04-28T01:15:46.144Z,0
2018-04-28T01:16:45.896Z,0
2018-04-28T01:17:45.894Z,0
2018-04-28T01:18:45.892Z,0
2018-04-28T01:19:46.139Z,0
2018-04-28T01:20:45.639Z,0
2018-04-28T01:21:45.894Z,0
2018-04-28T01:22:46.136Z,0
2018-04-28T01:23:45.640Z,0
2018-04-28T01:24:45.635Z,0
2018-04-28T01:25:45.887Z,0
2018-04-28T01:26:45.640Z,0
2018-04-28T01:27:46.137Z,0
2018-04-28T01:28:46.137Z,0
2018-04-28T01:29:46.123Z,0
2018-04-28T01:30:45.905Z,0
2018-04-28T01:31:45.685Z,0
2018-04-28T01:32:45.884Z,0
2018-04-28T01:33:45.875Z,0
2018-04-28T01:34:45.875Z,0
2018-04-28T01:35:45.625Z,0
2018-04-28T01:36:46.130Z,0
2018-04-28T01:37:45.376Z,0
2018-04-28T01:38:46.128Z,0
2018-04-28T01:39:45.874Z,0
2018-04-28T01:40:46.132Z,0
2018-04-28T01:41:45.883Z,0
2018-04-28T01:42:45.870Z,0
2018-04-28T01:43:46.124Z,0
2018-04-28T01:44:45.699Z,0
2018-04-28T01:45:45.669Z,0
2018-04-28T01:46:45.867Z,0
2018-04-28T01:47:45.612Z,0
2018-04-28T01:48:46.119Z,0
2018-04-28T01:49:46.105Z,0
2018-04-28T01:50:46.113Z,0
2018-04-28T01:51:45.853Z,0
2018-04-28T01:52:46.119Z,0
2018-04-28T01:53:45.880Z,0
2018-04-28T01:54:46.103Z,0
2018-04-28T01:55:45.854Z,0
2018-04-28T01:56:46.094Z,0
2018-04-28T01:57:46.096Z,0
2018-04-28T01:58:46.095Z,0
2018-04-28T01:59:45.617Z,0
2018-04-28T02:00:46.117Z,0
2018-04-28T02:01:46.096Z,0
2018-04-28T02:02:46.097Z,0
2018-04-28T02:03:45.591Z,0
2018-04-28T02:04:45.843Z,0
2018-04-28T02:05:45.864Z,0
2018-04-28T02:06:46.096Z,0
2018-04-28T02:07:45.846Z,0
2018-04-28T02:08:46.088Z,0
2018-04-28T02:09:45.829Z,0
2018-04-28T02:10:45.587Z,0
2018-04-28T02:11:45.861Z,0
2018-04-28T02:12:46.091Z,0
2018-04-28T02:13:45.588Z,0
2018-04-28T02:14:46.099Z,0
2018-04-28T02:15:46.089Z,0
2018-04-28T02:16:45.575Z,0
2018-04-28T02:17:46.106Z,0
2018-04-28T02:18:46.077Z,0
2018-04-28T02:19:46.076Z,0
2018-04-28T02:20:46.085Z,0
2018-04-28T02:21:45.833Z,0
2018-04-28T02:22:45.822Z,0
2018-04-28T02:23:45.826Z,0
2018-04-28T02:24:46.069Z,0
2018-04-28T02:25:46.068Z,0
2018-04-28T02:26:45.571Z,0
2018-04-28T02:27:46.067Z,0
2018-04-28T02:28:46.087Z,0
2018-04-28T02:29:46.065Z,0
2018-04-28T02:30:45.830Z,0
2018-04-28T02:31:46.067Z,0
2018-04-28T02:32:46.071Z,0
2018-04-28T02:33:45.813Z,0
2018-04-28T02:34:46.067Z,0
2018-04-28T02:35:45.870Z,0
2018-04-28T02:36:46.064Z,0
2018-04-28T02:37:46.065Z,0
2018-04-28T02:38:46.058Z,0
2018-04-28T02:39:45.812Z,0
2018-04-28T02:40:45.896Z,0
2018-04-28T02:41:45.813Z,0
2018-04-28T02:42:46.081Z,0
2018-04-28T02:43:46.070Z,0
2018-04-28T02:44:45.797Z,0
2018-04-28T02:45:46.303Z,0
2018-04-28T02:46:45.796Z,0
2018-04-28T02:47:45.797Z,0
2018-04-28T02:48:46.060Z,0
2018-04-28T02:49:46.073Z,0
2018-04-28T02:50:46.039Z,0
2018-04-28T02:51:45.545Z,0
2018-04-28T02:52:45.784Z,0
2018-04-28T02:53:45.798Z,0
2018-04-28T02:54:45.548Z,0
2018-04-28T02:55:45.557Z,0
2018-04-28T02:56:46.053Z,0
2018-04-28T02:57:45.778Z,0
2018-04-28T02:58:46.027Z,0
2018-04-28T02:59:45.791Z,0
2018-04-28T03:00:46.021Z,0
2018-04-28T03:01:46.019Z,0
2018-04-28T03:02:46.038Z,0
2018-04-28T03:03:46.032Z,0
2018-04-28T03:04:45.771Z,0
2018-04-28T03:05:45.517Z,0
2018-04-28T03:06:45.773Z,0
2018-04-28T03:07:46.018Z,0
2018-04-28T03:08:46.023Z,0
2018-04-28T03:09:46.022Z,0
2018-04-28T03:10:45.535Z,0
2018-04-28T03:11:45.794Z,0
2018-04-28T03:12:46.018Z,0
2018-04-28T03:13:46.019Z,0
2018-04-28T03:14:46.014Z,0
2018-04-28T03:15:48.959Z,0
2018-04-28T03:16:45.843Z,0
2018-04-28T03:17:46.012Z,0
2018-04-28T03:18:45.773Z,0
2018-04-28T03:19:45.753Z,0
2018-04-28T03:20:46.013Z,0
2018-04-28T03:21:46.015Z,0
2018-04-28T03:22:45.743Z,0
2018-04-28T03:23:45.989Z,0
2018-04-28T03:24:45.991Z,0
2018-04-28T03:25:45.791Z,0
2018-04-28T03:26:45.484Z,0
2018-04-28T03:27:45.982Z,0
2018-04-28T03:28:45.984Z,0
2018-04-28T03:29:45.481Z,0
2018-04-28T03:38:06.187Z,0
2018-04-28T03:39:06.166Z,0
2018-04-28T03:40:06.447Z,0
2018-04-28T03:41:06.144Z,4
2018-04-28T03:42:06.399Z,4
2018-04-28T03:43:06.399Z,4
2018-04-28T03:44:06.175Z,0
2018-04-28T03:45:06.145Z,0
2018-04-28T03:46:06.151Z,4
2018-04-28T03:47:06.153Z,4
2018-04-28T03:48:06.391Z,4
2018-04-28T03:49:06.164Z,4
2018-04-28T03:50:06.155Z,4
2018-04-28T03:51:06.153Z,8
2018-04-28T03:52:05.879Z,8
2018-04-28T03:53:07.178Z,8
2018-04-28T03:54:06.406Z,12
2018-04-28T03:55:06.151Z,12
2018-04-28T03:56:06.371Z,12
2018-04-28T03:57:06.115Z,20
2018-04-28T03:58:06.524Z,20
2018-04-28T03:59:06.362Z,24
2018-04-28T04:00:06.122Z,24
2018-04-28T04:01:06.132Z,24
2018-04-28T04:02:06.123Z,28
2018-04-28T04:03:06.586Z,32
2018-04-28T04:04:06.363Z,36
2018-04-28T04:05:06.365Z,44
2018-04-28T04:06:06.103Z,44
2018-04-28T04:07:06.362Z,48
2018-04-28T04:08:06.139Z,56
2018-04-28T04:09:06.355Z,68
2018-04-28T04:10:06.111Z,76
2018-04-28T04:11:05.835Z,80
2018-04-28T04:12:06.101Z,92
2018-04-28T04:13:06.117Z,104
2018-04-28T04:14:05.839Z,116
2018-04-28T04:15:06.334Z,136
2018-04-28T04:16:06.085Z,148
2018-04-28T04:17:06.100Z,168
2018-04-28T04:18:06.169Z,188
2018-04-28T04:19:06.334Z,208
2018-04-28T04:20:06.110Z,228
2018-04-28T04:21:06.355Z,248
2018-04-28T04:22:06.323Z,268
2018-04-28T04:23:06.344Z,296
2018-04-28T04:24:06.094Z,320
2018-04-28T04:25:06.329Z,340
2018-04-28T04:26:06.326Z,368
2018-04-28T04:27:06.325Z,396
2018-04-28T04:28:05.835Z,416
2018-04-28T04:29:06.319Z,444
2018-04-28T04:30:06.071Z,464
2018-04-28T04:31:06.330Z,480
2018-04-28T04:32:06.209Z,492
2018-04-28T04:33:06.077Z,508
2018-04-28T04:34:06.323Z,520
2018-04-28T04:35:06.048Z,524
2018-04-28T04:36:06.055Z,520
2018-04-28T04:37:06.302Z,516
2018-04-28T04:38:06.325Z,512
2018-04-28T04:39:06.304Z,532
2018-04-28T04:40:06.297Z,552
2018-04-28T04:41:06.044Z,568
2018-04-28T04:42:06.045Z,588
2018-04-28T04:43:06.313Z,604
2018-04-28T04:44:06.296Z,608
2018-04-28T04:45:06.343Z,612
2018-04-28T04:46:06.322Z,632
2018-04-28T04:47:05.779Z,672
2018-04-28T04:48:06.032Z,728
2018-04-28T04:49:06.301Z,796
2018-04-28T04:50:05.767Z,864
2018-04-28T04:51:06.031Z,928
2018-04-28T04:52:06.274Z,972
2018-04-28T04:53:06.508Z,980
2018-04-28T04:54:06.026Z,988
2018-04-28T04:55:06.293Z,996
2018-04-28T04:56:06.278Z,1048
2018-04-28T04:57:06.056Z,1108
2018-04-28T04:58:06.021Z,1176
2018-04-28T04:59:05.765Z,1308
2018-04-28T05:00:06.004Z,1424
2018-04-28T05:01:06.257Z,1536
2018-04-28T05:02:06.011Z,1664
2018-04-28T05:03:06.324Z,1728
2018-04-28T05:04:06.272Z,1800
2018-04-28T05:05:05.993Z,1900
2018-04-28T05:06:06.269Z,2032
2018-04-28T05:07:06.023Z,2112
2018-04-28T05:08:05.774Z,2204
2018-04-28T05:09:06.248Z,2356
2018-04-28T05:10:05.993Z,2376
2018-04-28T05:11:05.736Z,3720
2018-04-28T05:12:06.261Z,4304
2018-04-28T05:13:06.263Z,4136
2018-04-28T05:14:06.258Z,2704
2018-04-28T05:15:05.972Z,2788
2018-04-28T05:16:05.968Z,3816
2018-04-28T05:17:05.720Z,2348
2018-04-28T05:18:06.253Z,2320
2018-04-28T05:19:06.017Z,2208
2018-04-28T05:20:06.288Z,2160
2018-04-28T05:21:05.708Z,2136
2018-04-28T05:22:06.228Z,2100
2018-04-28T05:23:06.360Z,2152
2018-04-28T05:24:05.964Z,2320
2018-04-28T05:25:06.322Z,2444
2018-04-28T05:26:05.971Z,2636
2018-04-28T05:27:05.970Z,2812
2018-04-28T05:28:06.239Z,2980
2018-04-28T05:29:05.981Z,3092
2018-04-28T05:30:05.955Z,3128
2018-04-28T05:31:06.230Z,3148
2018-04-28T05:32:05.704Z,3176
2018-04-28T05:33:06.224Z,3244
2018-04-28T05:34:06.238Z,3260
2018-04-28T05:35:06.226Z,3272
2018-04-28T05:36:06.779Z,3320
2018-04-28T05:37:05.953Z,3360
2018-04-28T05:38:06.230Z,4948
2018-04-28T05:39:06.250Z,4076
2018-04-28T05:40:06.217Z,3760
2018-04-28T05:41:06.224Z,3848
2018-04-28T05:42:05.950Z,4008
2018-04-28T05:43:05.952Z,4064
2018-04-28T05:44:05.952Z,4044
2018-04-28T05:45:06.215Z,4128
2018-04-28T05:46:05.941Z,4284
2018-04-28T05:47:06.200Z,4160
2018-04-28T05:48:05.711Z,3980
2018-04-28T05:49:05.943Z,4072
2018-04-28T05:50:06.215Z,4116
2018-04-28T05:51:06.214Z,4148
2018-04-28T05:52:05.952Z,4284
2018-04-28T05:53:05.947Z,4540
2018-04-28T05:54:05.945Z,4916
2018-04-28T05:55:06.218Z,5144
2018-04-28T05:56:05.454Z,5152
2018-04-28T05:57:05.940Z,5072
2018-04-28T05:58:05.954Z,4948
2018-04-28T05:59:06.222Z,4828
2018-04-28T06:00:05.951Z,4676
2018-04-28T06:01:05.940Z,4556
2018-04-28T06:02:05.939Z,4464
2018-04-28T06:03:06.234Z,4316
2018-04-28T06:04:06.218Z,4196
2018-04-28T06:05:05.691Z,4120
2018-04-28T06:06:06.225Z,3972
2018-04-28T06:07:05.940Z,3848
2018-04-28T06:08:05.957Z,3656
2018-04-28T06:09:06.220Z,3296
2018-04-28T06:10:05.688Z,2872
2018-04-28T06:11:06.207Z,2468
2018-04-28T06:12:06.220Z,2224
2018-04-28T06:13:05.942Z,2116
2018-04-28T06:14:06.343Z,2220
2018-04-28T06:23:39.329Z,2680
2018-04-28T06:24:37.464Z,2600
2018-04-28T06:25:37.242Z,2512
2018-04-28T06:26:37.210Z,2464
2018-04-28T06:27:37.216Z,2416
2018-04-28T06:28:37.459Z,2380
2018-04-28T06:29:36.955Z,2332
2018-04-28T06:30:37.312Z,2364
2018-04-28T06:31:36.964Z,2448
2018-04-28T06:32:37.215Z,2492
2018-04-28T06:33:37.214Z,2464
2018-04-28T06:34:37.451Z,2420
2018-04-28T06:35:36.739Z,2404
2018-04-28T06:36:37.517Z,2424
2018-04-28T06:37:37.447Z,2452
2018-04-28T06:38:37.240Z,2496
2018-04-28T06:39:37.196Z,2744
2018-04-28T06:40:36.698Z,3112
2018-04-28T06:41:37.197Z,3516
2018-04-28T06:42:37.250Z,3936
2018-04-28T06:43:37.206Z,5448
2018-04-28T06:44:37.216Z,7780
2018-04-28T06:45:37.551Z,3920
2018-04-28T06:46:36.948Z,3736
2018-04-28T06:47:36.946Z,3648
2018-04-28T06:48:37.185Z,4864
2018-04-28T06:49:36.956Z,3148
2018-04-28T06:50:37.063Z,3000
2018-04-28T06:51:36.960Z,2984
2018-04-28T06:52:37.195Z,3056
2018-04-28T06:53:37.189Z,3124
2018-04-28T06:54:37.187Z,3216
2018-04-28T06:55:37.525Z,3284
2018-04-28T06:56:37.438Z,3224
2018-04-28T06:57:37.213Z,3288
2018-04-28T06:58:37.627Z,3276
2018-04-28T06:59:37.191Z,3140
2018-04-28T07:00:37.220Z,2904
2018-04-28T07:01:37.204Z,2696
2018-04-28T07:02:37.444Z,2564
2018-04-28T07:03:37.194Z,2560
2018-04-28T07:04:37.349Z,2688
2018-04-28T07:05:37.470Z,2912
2018-04-28T07:06:37.449Z,3232
2018-04-28T07:07:37.460Z,3496
2018-04-28T07:08:37.446Z,3672
2018-04-28T07:09:37.454Z,3764
2018-04-28T07:10:37.282Z,3872
2018-04-28T07:11:37.222Z,4080
2018-04-28T07:12:37.194Z,4152
2018-04-28T07:13:37.209Z,3996
2018-04-28T07:14:36.947Z,3836
2018-04-28T07:15:37.529Z,3764
2018-04-28T07:16:36.966Z,3776
2018-04-28T07:17:37.226Z,3864
2018-04-28T07:18:37.502Z,3996
2018-04-28T07:19:37.500Z,4156
2018-04-28T07:20:37.031Z,4260
2018-04-28T07:21:37.202Z,4352
2018-04-28T07:22:37.193Z,4396
2018-04-28T07:23:38.797Z,4520
2018-04-28T07:24:37.513Z,4616
2018-04-28T07:25:37.482Z,4640
2018-04-28T07:26:37.456Z,4680
2018-04-28T07:27:37.211Z,4732
2018-04-28T07:28:37.438Z,4632
2018-04-28T07:29:36.700Z,4416
2018-04-28T07:30:37.482Z,4224
2018-04-28T07:31:37.193Z,4136
2018-04-28T07:32:37.447Z,4020
2018-04-28T07:33:36.961Z,4060
2018-04-28T07:34:37.440Z,4212
2018-04-28T07:35:37.453Z,4404
2018-04-28T07:36:37.453Z,4636
2018-04-28T07:37:37.446Z,4764
2018-04-28T07:38:37.207Z,4792
2018-04-28T07:39:37.195Z,4676
2018-04-28T07:40:37.468Z,4532
2018-04-28T07:41:37.193Z,4420
2018-04-28T07:42:37.211Z,4428
2018-04-28T07:43:37.192Z,4696
2018-04-28T07:44:36.944Z,5164
2018-04-28T07:45:37.495Z,5604
2018-04-28T07:46:37.210Z,7220
2018-04-28T07:47:37.640Z,7480
2018-04-28T07:48:37.460Z,7028
2018-04-28T07:49:37.200Z,6400
2018-04-28T07:50:37.299Z,6112
2018-04-28T07:51:37.443Z,5908
2018-04-28T07:52:37.452Z,5848
2018-04-28T07:53:37.203Z,5944
2018-04-28T07:54:38.530Z,6108
2018-04-28T07:55:37.314Z,6216
2018-04-28T07:56:37.451Z,6360
2018-04-28T07:57:37.216Z,6624
2018-04-28T07:58:36.952Z,6568
2018-04-28T07:59:37.453Z,6896
2018-04-28T08:00:37.258Z,7496
2018-04-28T08:01:36.970Z,8348
2018-04-28T08:02:37.224Z,8004
2018-04-28T08:03:37.205Z,8504
2018-04-28T08:04:37.461Z,9676
2018-04-28T08:05:37.493Z,13316
2018-04-28T08:06:37.224Z,12172
2018-04-28T08:07:37.222Z,14796
2018-04-28T08:08:37.522Z,13648
2018-04-28T08:09:36.969Z,14808
2018-04-28T08:10:37.265Z,13864
2018-04-28T08:11:37.220Z,11016
2018-04-28T08:12:36.984Z,10372
2018-04-28T08:13:37.239Z,9892
2018-04-28T08:14:37.223Z,9568
2018-04-28T08:15:36.993Z,9280
2018-04-28T08:16:37.255Z,8772
2018-04-28T08:17:37.235Z,8440
2018-04-28T08:18:37.488Z,8260
2018-04-28T08:19:37.003Z,8176
2018-04-28T08:20:37.571Z,8236
2018-04-28T08:21:37.257Z,8228
2018-04-28T08:22:37.014Z,8452
2018-04-28T08:23:37.259Z,8700
2018-04-28T08:24:37.515Z,8816
2018-04-28T08:25:36.898Z,8564
2018-04-28T08:26:37.437Z,8492
2018-04-28T08:27:37.022Z,8644
2018-04-28T08:28:37.266Z,8500
2018-04-28T08:29:37.080Z,8216
2018-04-28T08:30:37.318Z,7884
2018-04-28T08:31:37.527Z,7664
2018-04-28T08:32:37.525Z,7500
2018-04-28T08:33:37.536Z,7328
2018-04-28T08:34:37.281Z,7172
2018-04-28T08:35:37.159Z,6856
2018-04-28T08:36:37.542Z,6392
2018-04-28T08:37:36.802Z,5848
2018-04-28T08:38:37.306Z,5316
2018-04-28T08:39:37.592Z,4940
2018-04-28T08:40:37.154Z,4700
2018-04-28T08:41:37.554Z,4460
2018-04-28T08:42:37.316Z,4332
2018-04-28T08:43:37.061Z,4328
2018-04-28T08:44:37.140Z,4404
2018-04-28T08:45:37.904Z,4440
2018-04-28T08:46:37.331Z,4464
2018-04-28T08:47:37.321Z,4484
2018-04-28T08:48:37.330Z,4384
2018-04-28T08:49:37.579Z,4236
2018-04-28T08:50:37.345Z,4108
2018-04-28T08:51:37.566Z,4076
2018-04-28T08:52:37.446Z,4192
2018-04-28T08:53:37.098Z,4440
2018-04-28T08:54:37.886Z,4756
2018-04-28T08:55:37.387Z,5068
2018-04-28T08:56:37.392Z,5380
2018-04-28T08:57:37.584Z,5500
2018-04-28T08:58:37.102Z,5448
2018-04-28T08:59:37.345Z,5224
2018-04-28T09:00:37.400Z,5084
2018-04-28T09:01:37.360Z,4948
2018-04-28T09:02:37.350Z,4792
2018-04-28T09:03:37.686Z,4760
2018-04-28T09:04:37.335Z,4880
2018-04-28T09:05:37.415Z,5040
2018-04-28T09:06:37.349Z,5092
2018-04-28T09:07:37.370Z,5004
2018-04-28T09:08:37.596Z,4856
2018-04-28T09:09:37.608Z,4712
2018-04-28T09:10:37.363Z,4668
2018-04-28T09:11:37.349Z,4716
2018-04-28T09:12:37.344Z,4720
2018-04-28T09:13:37.636Z,4684
2018-04-28T09:14:37.601Z,4620
2018-04-28T09:15:37.426Z,4580
2018-04-28T09:16:37.350Z,4588
2018-04-28T09:17:37.595Z,4588
2018-04-28T09:18:37.600Z,4576
2018-04-28T09:19:37.256Z,4636
2018-04-28T09:20:37.202Z,4668
2018-04-28T09:21:37.604Z,4624
2018-04-28T09:22:37.371Z,4484
2018-04-28T09:23:37.611Z,4312
2018-04-28T09:24:37.613Z,4160
2018-04-28T09:25:37.658Z,4012
2018-04-28T09:26:37.353Z,3868
2018-04-28T09:27:37.606Z,3720
2018-04-28T09:28:37.668Z,3596
2018-04-28T09:29:37.353Z,3472
2018-04-28T09:30:37.362Z,3408
2018-04-28T09:31:37.387Z,3368
2018-04-28T09:32:37.106Z,3352
2018-04-28T09:33:37.140Z,3324
2018-04-28T09:34:37.375Z,3308
2018-04-28T09:35:37.619Z,3332
2018-04-28T09:36:37.606Z,3324
2018-04-28T09:37:36.868Z,3328
2018-04-28T09:38:37.359Z,3316
2018-04-28T09:39:37.366Z,3304
2018-04-28T09:40:37.367Z,3272
2018-04-28T09:41:37.374Z,3232
2018-04-28T09:42:37.119Z,3192
2018-04-28T09:43:37.369Z,3156
2018-04-28T09:44:37.380Z,3124
2018-04-28T09:45:37.208Z,3136
2018-04-28T09:46:37.120Z,3156
2018-04-28T09:47:37.368Z,3184
2018-04-28T09:48:37.613Z,3264
2018-04-28T09:49:37.356Z,3368
2018-04-28T09:50:37.433Z,3492
2018-04-28T09:51:37.131Z,3616
2018-04-28T09:52:37.120Z,3776
2018-04-28T09:53:37.206Z,4000
2018-04-28T09:54:37.375Z,4296
2018-04-28T09:55:39.885Z,4628
2018-04-28T09:56:37.381Z,4988
2018-04-28T09:57:37.608Z,5544
2018-04-28T09:58:37.131Z,6136
2018-04-28T09:59:37.619Z,6696
2018-04-28T10:00:37.159Z,7236
2018-04-28T10:01:37.123Z,7584
2018-04-28T10:02:37.359Z,7968
2018-04-28T10:03:37.608Z,8292
2018-04-28T10:04:37.405Z,8604
2018-04-28T10:05:37.395Z,9052
2018-04-28T10:06:37.180Z,9392
2018-04-28T10:07:37.361Z,9776
2018-04-28T10:08:37.126Z,10116
2018-04-28T10:09:37.365Z,10432
2018-04-28T10:10:37.436Z,10584
2018-04-28T10:11:37.621Z,10448
2018-04-28T10:12:37.169Z,10184
2018-04-28T10:13:38.563Z,9924
2018-04-28T10:14:37.379Z,9956
2018-04-28T10:15:36.898Z,9956
2018-04-28T10:16:37.381Z,10008
2018-04-28T10:17:37.429Z,10292
2018-04-28T10:18:37.383Z,10228
2018-04-28T10:19:37.636Z,10188
2018-04-28T10:20:37.630Z,10280
2018-04-28T10:21:37.152Z,10240
2018-04-28T10:22:37.147Z,10132
2018-04-28T10:53:14.389Z,13336
2018-04-28T10:54:14.341Z,13328
2018-04-28T10:55:15.694Z,13292
2018-04-28T10:56:14.586Z,13216
2018-04-28T10:57:14.342Z,13084
2018-04-28T10:58:14.326Z,12980
2018-04-28T10:59:13.840Z,12876
2018-04-28T11:00:15.624Z,12636
2018-04-28T11:01:14.097Z,12296
2018-04-28T11:02:14.074Z,11988
2018-04-28T11:03:14.598Z,11740
2018-04-28T11:04:14.326Z,11784
2018-04-28T11:05:15.999Z,11932
2018-04-28T11:06:14.283Z,12148
2018-04-28T11:07:14.588Z,12464
2018-04-28T11:08:14.344Z,12724
2018-04-28T11:09:14.351Z,12864
2018-04-28T11:10:15.648Z,13176
2018-04-28T11:11:14.596Z,13300
2018-04-28T11:12:14.212Z,13384
2018-04-28T11:13:14.393Z,13332
2018-04-28T11:14:14.615Z,13248
2018-04-28T11:15:15.995Z,13260
2018-04-28T11:16:14.357Z,13252
2018-04-28T11:17:14.111Z,13236
2018-04-28T11:18:14.363Z,13172
2018-04-28T11:19:14.118Z,13204
2018-04-28T11:20:15.881Z,13272
2018-04-28T11:21:14.134Z,13316
2018-04-28T11:22:14.146Z,13344
2018-04-28T11:23:14.128Z,13348
2018-04-28T11:24:14.664Z,13348
2018-04-28T11:25:15.607Z,13300
2018-04-28T11:26:14.401Z,13244
2018-04-28T11:27:14.409Z,13180
2018-04-28T11:28:14.396Z,13108
2018-04-28T11:29:14.664Z,13012
2018-04-28T11:30:16.438Z,12904
2018-04-28T11:31:14.413Z,12784
2018-04-28T11:32:14.449Z,12636
2018-04-28T11:33:14.409Z,12456
2018-04-28T11:34:14.412Z,12404
2018-04-28T11:35:16.164Z,12408
2018-04-28T11:36:14.421Z,12540
2018-04-28T11:37:14.681Z,12624
2018-04-28T11:38:14.654Z,12644
2018-04-28T11:39:14.438Z,12688
2018-04-28T11:40:16.085Z,12680
2018-04-28T11:41:14.440Z,12668
2018-04-28T11:42:14.192Z,12708
2018-04-28T11:43:14.200Z,12816
2018-04-28T11:44:14.449Z,12964
2018-04-28T11:45:15.788Z,13080
2018-04-28T11:46:14.468Z,13164
2018-04-28T11:47:14.708Z,13264
2018-04-28T11:48:14.269Z,13384
2018-04-28T11:49:14.477Z,13420
2018-04-28T11:50:15.495Z,13464
2018-04-28T11:51:14.481Z,13516
2018-04-28T11:52:14.776Z,13552
2018-04-28T11:53:14.490Z,13620
2018-04-28T11:54:14.508Z,13664
2018-04-28T11:55:16.150Z,13672
2018-04-28T11:56:14.529Z,13624
2018-04-28T11:57:13.997Z,13580
2018-04-28T11:58:14.518Z,13580
2018-04-28T11:59:14.314Z,13692
2018-04-28T12:00:15.470Z,13672
2018-04-28T12:01:14.530Z,13576
2018-04-28T12:02:14.796Z,13508
2018-04-28T12:03:14.525Z,13532
2018-04-28T12:04:14.527Z,13520
2018-04-28T12:05:16.333Z,13492
2018-04-28T12:06:14.545Z,13432
2018-04-28T12:07:14.529Z,13388
2018-04-28T12:08:14.592Z,13452
2018-04-28T12:09:14.533Z,13572
2018-04-28T12:10:16.071Z,13636
2018-04-28T12:11:14.559Z,13712
2018-04-28T12:12:14.453Z,13716
2018-04-28T12:13:14.988Z,13724
2018-04-28T12:14:14.306Z,13676
2018-04-28T12:15:15.593Z,13424
2018-04-28T12:16:14.824Z,13312
2018-04-28T12:17:14.333Z,13152
2018-04-28T12:18:14.598Z,13004
2018-04-28T12:19:14.585Z,12908
2018-04-28T12:20:15.814Z,12776
2018-04-28T12:21:15.148Z,12696
2018-04-28T12:22:14.586Z,12672
2018-04-28T12:23:14.591Z,12600
2018-04-28T12:24:14.845Z,12576
2018-04-28T12:25:15.581Z,12664
2018-04-28T12:26:14.399Z,12784
2018-04-28T12:27:14.383Z,12936
2018-04-28T12:28:15.478Z,13040
2018-04-28T12:29:14.108Z,12860
2018-04-28T12:30:16.337Z,12596
2018-04-28T12:31:14.606Z,12648
2018-04-28T12:32:14.680Z,12552
2018-04-28T12:33:14.634Z,12592
2018-04-28T12:34:14.623Z,12564
2018-04-28T12:35:16.141Z,12112
2018-04-28T12:36:14.386Z,11592
2018-04-28T12:37:14.626Z,11304
2018-04-28T12:38:14.635Z,11292
2018-04-28T12:39:14.641Z,11260
2018-04-28T12:40:16.268Z,10972
2018-04-28T12:41:14.653Z,11004
2018-04-28T12:42:14.656Z,10720
2018-04-28T12:43:14.409Z,10656
2018-04-28T12:44:14.661Z,10516
2018-04-28T12:45:15.956Z,10228
2018-04-28T12:46:14.433Z,10124
2018-04-28T12:47:15.062Z,10004
2018-04-28T12:48:14.926Z,9380
2018-04-28T12:49:14.676Z,9236
2018-04-28T12:50:15.475Z,8892
2018-04-28T12:51:15.015Z,8816
2018-04-28T12:52:14.684Z,8380
2018-04-28T12:53:14.443Z,8776
2018-04-28T12:54:14.685Z,8516
2018-04-28T12:55:16.456Z,8196
2018-04-28T12:56:14.953Z,8120
2018-04-28T12:57:14.949Z,7988
2018-04-28T12:58:14.699Z,7704
2018-04-28T12:59:14.960Z,7524
2018-04-28T13:00:16.177Z,7424
2018-04-28T13:01:14.458Z,7256
2018-04-28T13:02:14.969Z,6960
2018-04-28T13:03:14.717Z,6804
2018-04-28T13:04:14.706Z,6736
2018-04-28T13:05:16.038Z,6536
2018-04-28T13:06:14.859Z,6328
2018-04-28T13:07:14.980Z,6388
2018-04-28T13:08:14.724Z,6484
2018-04-28T13:09:14.726Z,6444
2018-04-28T13:10:16.392Z,6356
2018-04-28T13:11:14.500Z,6288
2018-04-28T13:12:14.497Z,6256
2018-04-28T13:13:14.740Z,6076
2018-04-28T13:14:14.991Z,5900
2018-04-28T13:15:16.394Z,5764
2018-04-28T13:16:14.742Z,5812
2018-04-28T13:17:14.765Z,5868
2018-04-28T13:18:15.009Z,5884
2018-04-28T13:19:15.017Z,5916
2018-04-28T13:20:15.681Z,5904
2018-04-28T13:21:14.513Z,5872
2018-04-28T13:22:14.755Z,5864
2018-04-28T13:23:14.877Z,5788
2018-04-28T13:24:15.015Z,5760
2018-04-28T13:25:16.331Z,5728
2018-04-28T13:26:14.783Z,5712
2018-04-28T13:27:14.767Z,5696
2018-04-28T13:28:14.521Z,5680
2018-04-28T13:29:15.372Z,5692
2018-04-28T13:30:16.137Z,5704
2018-04-28T13:31:14.770Z,5728
2018-04-28T13:32:15.089Z,5716
2018-04-28T13:33:14.776Z,5432
2018-04-28T13:34:14.570Z,5600
2018-04-28T13:35:16.088Z,5708
2018-04-28T13:36:14.797Z,5720
2018-04-28T13:37:15.041Z,5732
2018-04-28T13:38:15.050Z,5712
2018-04-28T13:39:14.540Z,5688
2018-04-28T13:40:16.535Z,5664
2018-04-28T13:41:15.255Z,5652
2018-04-28T13:42:14.800Z,5656
2018-04-28T13:43:14.816Z,5652
2018-04-28T13:44:14.564Z,5652
2018-04-28T13:45:15.826Z,5660
2018-04-28T13:46:15.133Z,5672
2018-04-28T13:47:14.823Z,5704
2018-04-28T13:48:14.624Z,5732
2018-04-28T13:49:14.820Z,5780
2018-04-28T13:50:16.872Z,5840
2018-04-28T13:51:15.091Z,5892
2018-04-28T13:52:14.577Z,5960
2018-04-28T13:53:14.835Z,6008
2018-04-28T13:54:15.081Z,6064
2018-04-28T13:55:16.550Z,6036
2018-04-28T13:56:14.334Z,5728
2018-04-28T13:57:15.088Z,5528
2018-04-28T13:58:14.851Z,5840
2018-04-28T13:59:14.848Z,6016
2018-04-28T14:00:15.976Z,6092
2018-04-28T14:01:14.843Z,6508
2018-04-28T14:02:15.093Z,6672
2018-04-28T14:03:14.593Z,6728
2018-04-28T14:04:15.085Z,6820
2018-04-28T14:05:16.657Z,6852
2018-04-28T14:06:14.849Z,6964
2018-04-28T14:07:14.853Z,7044
2018-04-28T14:08:14.601Z,7116
2018-04-28T14:09:14.363Z,7108
2018-04-28T14:10:16.189Z,7048
2018-04-28T14:11:14.855Z,7000
2018-04-28T14:12:14.669Z,7028
2018-04-28T14:13:15.106Z,7088
2018-04-28T14:14:14.945Z,7148
2018-04-28T14:15:16.037Z,7364
2018-04-28T14:16:14.878Z,7572
2018-04-28T14:17:14.891Z,7964
2018-04-28T14:18:14.885Z,7932
2018-04-28T14:19:15.135Z,7988
2018-04-28T14:20:16.244Z,7612
2018-04-28T14:21:15.147Z,7412
2018-04-28T14:22:14.887Z,7572
2018-04-28T14:23:14.924Z,7468
2018-04-28T14:24:14.921Z,7324
2018-04-28T14:25:16.602Z,7364